sensor_id;sensor_type;location;lat;lon;timestamp;pressure;altitude;pressure_sealevel;temperature;humidity
62694;BME280;48759;52.544;13.418;2023-05-19T00:01:19;102116.53;;;4.32;nan
62694;BME280;48759;52.544;13.418;2023-05-19T00:03:50;102107.69;;;4.40;nan
62694;BME280;48759;52.544;13.418;2023-05-19T00:06:21;102110.63;;;4.27;nan
62694;BME280;48759;52.544;13.418;2023-05-19T00:08:49;102110.44;;;4.29;nan
62694;BME280;48759;52.544;13.418;2023-05-19T00:11:19;102114.56;;;4.23;nan
62694;BME280;48759;52.544;13.418;2023-05-19T00:13:47;102118.78;;;4.27;nan
62694;BME280;48759;52.544;13.418;2023-05-19T00:16:17;102123.50;;;4.25;nan
62694;BME280;48759;52.544;13.418;2023-05-19T00:18:43;102127.41;;;4.11;nan
62694;BME280;48759;52.544;13.418;2023-05-19T00:21:11;102125.06;;;4.07;nan
62694;BME280;48759;52.544;13.418;2023-05-19T00:23:38;102121.34;;;4.08;nan
62694;BME280;48759;52.544;13.418;2023-05-19T00:26:05;102121.34;;;4.08;nan
62694;BME280;48759;52.544;13.418;2023-05-19T00:28:32;102120.88;;;4.03;nan
62694;BME280;48759;52.544;13.418;2023-05-19T00:30:58;102117.78;;;3.96;nan
62694;BME280;48759;52.544;13.418;2023-05-19T00:33:27;102116.66;;;3.99;nan
62694;BME280;48759;52.544;13.418;2023-05-19T00:35:54;102122.38;;;3.96;nan
62694;BME280;48759;52.544;13.418;2023-05-19T00:38:21;102119.03;;;3.92;nan
62694;BME280;48759;52.544;13.418;2023-05-19T00:40:47;102112.72;;;3.92;nan
62694;BME280;48759;52.544;13.418;2023-05-19T00:43:14;102113.34;;;3.95;nan
62694;BME280;48759;52.544;13.418;2023-05-19T00:45:41;102110.88;;;3.92;nan
62694;BME280;48759;52.544;13.418;2023-05-19T00:48:08;102115.34;;;3.82;nan
62694;BME280;48759;52.544;13.418;2023-05-19T00:50:39;102116.34;;;3.81;nan
62694;BME280;48759;52.544;13.418;2023-05-19T00:53:06;102120.69;;;3.83;nan
62694;BME280;48759;52.544;13.418;2023-05-19T00:55:36;102118.72;;;3.74;nan
62694;BME280;48759;52.544;13.418;2023-05-19T00:58:05;102119.22;;;3.79;nan
62694;BME280;48759;52.544;13.418;2023-05-19T01:00:33;102115.78;;;3.66;nan
62694;BME280;48759;52.544;13.418;2023-05-19T01:03:03;102118.72;;;3.74;nan
62694;BME280;48759;52.544;13.418;2023-05-19T01:05:39;102122.94;;;3.78;nan
62694;BME280;48759;52.544;13.418;2023-05-19T01:08:09;102119.81;;;3.83;nan
62694;BME280;48759;52.544;13.418;2023-05-19T01:10:37;102120.81;;;3.82;nan
62694;BME280;48759;52.544;13.418;2023-05-19T01:13:04;102119.59;;;3.75;nan
62694;BME280;48759;52.544;13.418;2023-05-19T01:15:39;102118.72;;;3.74;nan
62694;BME280;48759;52.544;13.418;2023-05-19T01:18:14;102111.41;;;3.75;nan
62694;BME280;48759;52.544;13.418;2023-05-19T01:20:50;102104.63;;;3.69;nan
62694;BME280;48759;52.544;13.418;2023-05-19T01:23:32;102110.09;;;3.69;nan
62694;BME280;48759;52.544;13.418;2023-05-19T01:29:28;102112.69;;;3.60;nan
62694;BME280;48759;52.544;13.418;2023-05-19T01:32:05;102118.25;;;3.58;nan
62694;BME280;48759;52.544;13.418;2023-05-19T01:34:33;102108.25;;;3.59;nan
62694;BME280;48759;52.544;13.418;2023-05-19T01:37:00;102111.34;;;3.54;nan
62694;BME280;48759;52.544;13.418;2023-05-19T01:39:31;102110.50;;;3.54;nan
62694;BME280;48759;52.544;13.418;2023-05-19T01:42:00;102119.53;;;3.43;nan
62694;BME280;48759;52.544;13.418;2023-05-19T01:44:28;102116.31;;;3.38;nan
62694;BME280;48759;52.544;13.418;2023-05-19T01:46:55;102108.91;;;3.40;nan
62694;BME280;48759;52.544;13.418;2023-05-19T01:49:23;102114.13;;;3.32;nan
62694;BME280;48759;52.544;13.418;2023-05-19T01:51:51;102117.72;;;3.32;nan
62694;BME280;48759;52.544;13.418;2023-05-19T01:54:18;102119.00;;;3.27;nan
62694;BME280;48759;52.544;13.418;2023-05-19T01:56:49;102110.13;;;3.25;nan
62694;BME280;48759;52.544;13.418;2023-05-19T01:59:26;102114.94;;;3.21;nan
62694;BME280;48759;52.544;13.418;2023-05-19T02:01:56;102114.06;;;3.21;nan
62694;BME280;48759;52.544;13.418;2023-05-19T02:04:42;102116.06;;;3.19;nan
62694;BME280;48759;52.544;13.418;2023-05-19T02:07:16;102118.53;;;3.10;nan
62694;BME280;48759;52.544;13.418;2023-05-19T02:09:50;102124.59;;;3.14;nan
62694;BME280;48759;52.544;13.418;2023-05-19T02:12:20;102119.53;;;3.21;nan
62694;BME280;48759;52.544;13.418;2023-05-19T02:14:56;102120.03;;;3.15;nan
62694;BME280;48759;52.544;13.418;2023-05-19T02:17:26;102113.84;;;3.13;nan
62694;BME280;48759;52.544;13.418;2023-05-19T02:20:01;102114.31;;;3.18;nan
62694;BME280;48759;52.544;13.418;2023-05-19T02:22:29;102111.84;;;3.26;nan
62694;BME280;48759;52.544;13.418;2023-05-19T02:24:57;102104.56;;;3.15;nan
62694;BME280;48759;52.544;13.418;2023-05-19T02:27:23;102113.34;;;3.19;nan
62694;BME280;48759;52.544;13.418;2023-05-19T02:29:51;102113.22;;;3.20;nan
62694;BME280;48759;52.544;13.418;2023-05-19T02:32:19;102117.94;;;3.07;nan
62694;BME280;48759;52.544;13.418;2023-05-19T02:34:47;102116.69;;;3.11;nan
62694;BME280;48759;52.544;13.418;2023-05-19T02:37:15;102118.28;;;3.14;nan
62694;BME280;48759;52.544;13.418;2023-05-19T02:39:42;102112.84;;;3.14;nan
62694;BME280;48759;52.544;13.418;2023-05-19T02:42:10;102103.81;;;3.24;nan
62694;BME280;48759;52.544;13.418;2023-05-19T02:44:36;102101.22;;;3.34;nan
62694;BME280;48759;52.544;13.418;2023-05-19T02:47:03;102100.25;;;3.46;nan
62694;BME280;48759;52.544;13.418;2023-05-19T02:49:30;102110.50;;;3.54;nan
62694;BME280;48759;52.544;13.418;2023-05-19T02:52:00;102106.50;;;3.58;nan
62694;BME280;48759;52.544;13.418;2023-05-19T02:54:29;102108.47;;;3.67;nan
62694;BME280;48759;52.544;13.418;2023-05-19T02:56:56;102114.31;;;3.62;nan
62694;BME280;48759;52.544;13.418;2023-05-19T02:59:24;102106.50;;;3.69;nan
62694;BME280;48759;52.544;13.418;2023-05-19T03:01:54;102106.84;;;3.75;nan
62694;BME280;48759;52.544;13.418;2023-05-19T03:04:20;102108.81;;;3.73;nan
62694;BME280;48759;52.544;13.418;2023-05-19T03:06:47;102101.28;;;3.77;nan
62694;BME280;48759;52.544;13.418;2023-05-19T03:09:14;102104.34;;;3.83;nan
62694;BME280;48759;52.544;13.418;2023-05-19T03:11:43;102093.31;;;3.85;nan
62694;BME280;48759;52.544;13.418;2023-05-19T03:14:10;102105.31;;;3.82;nan
62694;BME280;48759;52.544;13.418;2023-05-19T03:16:37;102101.31;;;3.98;nan
62694;BME280;48759;52.544;13.418;2023-05-19T03:19:05;102099.56;;;3.97;nan
62694;BME280;48759;52.544;13.418;2023-05-19T03:21:33;102096.34;;;4.03;nan
62694;BME280;48759;52.544;13.418;2023-05-19T03:24:00;102092.03;;;4.00;nan
62694;BME280;48759;52.544;13.418;2023-05-19T03:26:27;102094.41;;;3.94;nan
62694;BME280;48759;52.544;13.418;2023-05-19T03:28:55;102106.06;;;3.84;nan
62694;BME280;48759;52.544;13.418;2023-05-19T03:31:22;102098.13;;;3.93;nan
62694;BME280;48759;52.544;13.418;2023-05-19T03:33:49;102096.50;;;3.90;nan
62694;BME280;48759;52.544;13.418;2023-05-19T03:36:15;102101.09;;;3.90;nan
62694;BME280;48759;52.544;13.418;2023-05-19T03:38:42;102104.22;;;3.85;nan
62694;BME280;48759;52.544;13.418;2023-05-19T03:41:09;102101.59;;;3.95;nan
62694;BME280;48759;52.544;13.418;2023-05-19T03:43:36;102101.63;;;3.83;nan
62694;BME280;48759;52.544;13.418;2023-05-19T03:46:04;102102.09;;;3.89;nan
62694;BME280;48759;52.544;13.418;2023-05-19T03:48:31;102098.53;;;3.88;nan
62694;BME280;48759;52.544;13.418;2023-05-19T03:50:57;102093.44;;;3.83;nan
62694;BME280;48759;52.544;13.418;2023-05-19T03:53:24;102106.63;;;3.99;nan
62694;BME280;48759;52.544;13.418;2023-05-19T03:55:51;102102.47;;;3.95;nan
62694;BME280;48759;52.544;13.418;2023-05-19T03:58:19;102093.00;;;3.99;nan
62694;BME280;48759;52.544;13.418;2023-05-19T04:00:46;102098.47;;;4.20;nan
62694;BME280;48759;52.544;13.418;2023-05-19T04:03:14;102102.81;;;4.22;nan
62694;BME280;48759;52.544;13.418;2023-05-19T04:05:41;102109.47;;;4.30;nan
62694;BME280;48759;52.544;13.418;2023-05-19T04:08:07;102102.34;;;4.38;nan
62694;BME280;48759;52.544;13.418;2023-05-19T04:10:34;102100.69;;;4.47;nan
62694;BME280;48759;52.544;13.418;2023-05-19T04:13:01;102100.16;;;4.74;nan
62694;BME280;48759;52.544;13.418;2023-05-19T04:15:29;102099.69;;;4.69;nan
62694;BME280;48759;52.544;13.418;2023-05-19T04:17:56;102100.97;;;4.95;nan
62694;BME280;48759;52.544;13.418;2023-05-19T04:20:24;102099.44;;;5.02;nan
62694;BME280;48759;52.544;13.418;2023-05-19T04:22:50;102098.19;;;5.16;nan
62694;BME280;48759;52.544;13.418;2023-05-19T04:25:17;102098.19;;;5.16;nan
62694;BME280;48759;52.544;13.418;2023-05-19T04:27:44;102103.00;;;5.23;nan
62694;BME280;48759;52.544;13.418;2023-05-19T04:30:14;102103.91;;;5.33;nan
62694;BME280;48759;52.544;13.418;2023-05-19T04:32:46;102101.25;;;5.53;nan
62694;BME280;48759;52.544;13.418;2023-05-19T04:35:13;102105.25;;;5.49;nan
62694;BME280;48759;52.544;13.418;2023-05-19T04:37:43;102105.56;;;5.65;nan
62694;BME280;48759;52.544;13.418;2023-05-19T04:40:11;102110.19;;;5.74;nan
62694;BME280;48759;52.544;13.418;2023-05-19T04:42:41;102108.47;;;5.83;nan
62694;BME280;48759;52.544;13.418;2023-05-19T04:45:10;102116.84;;;5.91;nan
62694;BME280;48759;52.544;13.418;2023-05-19T04:47:38;102114.25;;;5.89;nan
62694;BME280;48759;52.544;13.418;2023-05-19T04:50:06;102112.78;;;5.95;nan
62694;BME280;48759;52.544;13.418;2023-05-19T04:52:34;102118.69;;;6.09;nan
62694;BME280;48759;52.544;13.418;2023-05-19T04:55:03;102108.50;;;6.11;nan
62694;BME280;48759;52.544;13.418;2023-05-19T04:57:30;102124.19;;;6.19;nan
62694;BME280;48759;52.544;13.418;2023-05-19T04:59:59;102117.41;;;6.33;nan
62694;BME280;48759;52.544;13.418;2023-05-19T05:02:25;102116.97;;;6.47;nan
62694;BME280;48759;52.544;13.418;2023-05-19T05:04:53;102118.69;;;6.48;nan
62694;BME280;48759;52.544;13.418;2023-05-19T05:07:21;102114.81;;;6.41;nan
62694;BME280;48759;52.544;13.418;2023-05-19T05:09:47;102111.06;;;6.61;nan
62694;BME280;48759;52.544;13.418;2023-05-19T05:12:20;102108.59;;;6.77;nan
62694;BME280;48759;52.544;13.418;2023-05-19T05:14:47;102115.81;;;6.78;nan
62694;BME280;48759;52.544;13.418;2023-05-19T05:17:14;102112.75;;;6.81;nan
62694;BME280;48759;52.544;13.418;2023-05-19T05:19:42;102113.59;;;6.91;nan
62694;BME280;48759;52.544;13.418;2023-05-19T05:22:09;102119.31;;;7.08;nan
62694;BME280;48759;52.544;13.418;2023-05-19T05:24:36;102114.44;;;7.02;nan
62694;BME280;48759;52.544;13.418;2023-05-19T05:27:04;102106.97;;;6.94;nan
62694;BME280;48759;52.544;13.418;2023-05-19T05:29:33;102119.59;;;7.05;nan
62694;BME280;48759;52.544;13.418;2023-05-19T05:32:01;102115.25;;;7.12;nan
62694;BME280;48759;52.544;13.418;2023-05-19T05:34:28;102116.25;;;7.11;nan
62694;BME280;48759;52.544;13.418;2023-05-19T05:36:54;102130.88;;;7.29;nan
62694;BME280;48759;52.544;13.418;2023-05-19T05:39:21;102116.28;;;7.38;nan
62694;BME280;48759;52.544;13.418;2023-05-19T05:41:48;102120.75;;;7.66;nan
62694;BME280;48759;52.544;13.418;2023-05-19T05:44:15;102113.59;;;8.01;nan
62694;BME280;48759;52.544;13.418;2023-05-19T05:46:43;102114.09;;;8.14;nan
62694;BME280;48759;52.544;13.418;2023-05-19T05:49:10;102115.03;;;8.40;nan
62694;BME280;48759;52.544;13.418;2023-05-19T05:51:38;102115.00;;;8.58;nan
62694;BME280;48759;52.544;13.418;2023-05-19T05:54:06;102118.56;;;8.76;nan
62694;BME280;48759;52.544;13.418;2023-05-19T05:56:33;102122.06;;;9.12;nan
62694;BME280;48759;52.544;13.418;2023-05-19T05:59:01;102118.38;;;9.30;nan
62694;BME280;48759;52.544;13.418;2023-05-19T06:01:28;102120.22;;;9.55;nan
62694;BME280;48759;52.544;13.418;2023-05-19T06:03:57;102119.88;;;9.50;nan
62694;BME280;48759;52.544;13.418;2023-05-19T06:06:23;102114.06;;;9.53;nan
62694;BME280;48759;52.544;13.418;2023-05-19T06:08:50;102115.25;;;9.50;nan
62694;BME280;48759;52.544;13.418;2023-05-19T06:11:18;102113.72;;;9.56;nan
62694;BME280;48759;52.544;13.418;2023-05-19T06:13:45;102118.81;;;9.43;nan
62694;BME280;48759;52.544;13.418;2023-05-19T06:16:12;102118.53;;;9.54;nan
62694;BME280;48759;52.544;13.418;2023-05-19T06:18:39;102115.84;;;9.78;nan
62694;BME280;48759;52.544;13.418;2023-05-19T06:21:07;102122.81;;;10.07;nan
62694;BME280;48759;52.544;13.418;2023-05-19T06:23:34;102126.59;;;10.22;nan
62694;BME280;48759;52.544;13.418;2023-05-19T06:26:01;102121.06;;;10.06;nan
62694;BME280;48759;52.544;13.418;2023-05-19T06:28:28;102116.25;;;10.00;nan
62694;BME280;48759;52.544;13.418;2023-05-19T06:30:55;102119.34;;;9.96;nan
62694;BME280;48759;52.544;13.418;2023-05-19T06:33:23;102118.94;;;9.75;nan
62694;BME280;48759;52.544;13.418;2023-05-19T06:35:50;102117.72;;;9.78;nan
62694;BME280;48759;52.544;13.418;2023-05-19T06:38:19;102115.69;;;9.80;nan
62694;BME280;48759;52.544;13.418;2023-05-19T06:40:46;102124.41;;;9.67;nan
62694;BME280;48759;52.544;13.418;2023-05-19T06:43:13;102114.09;;;9.61;nan
62694;BME280;48759;52.544;13.418;2023-05-19T06:45:40;102114.97;;;9.62;nan
62694;BME280;48759;52.544;13.418;2023-05-19T06:48:06;102114.41;;;9.58;nan
62694;BME280;48759;52.544;13.418;2023-05-19T06:50:33;102119.94;;;9.66;nan
62694;BME280;48759;52.544;13.418;2023-05-19T06:53:00;102121.59;;;9.51;nan
62694;BME280;48759;52.544;13.418;2023-05-19T06:55:28;102118.06;;;9.67;nan
62694;BME280;48759;52.544;13.418;2023-05-19T06:57:55;102115.47;;;9.65;nan
62694;BME280;48759;52.544;13.418;2023-05-19T07:00:22;102121.19;;;9.88;nan
62694;BME280;48759;52.544;13.418;2023-05-19T07:02:49;102114.50;;;9.82;nan
62694;BME280;48759;52.544;13.418;2023-05-19T07:05:16;102116.59;;;9.96;nan
62694;BME280;48759;52.544;13.418;2023-05-19T07:07:42;102121.06;;;10.06;nan
62694;BME280;48759;52.544;13.418;2023-05-19T07:10:10;102112.13;;;10.12;nan
62694;BME280;48759;52.544;13.418;2023-05-19T07:12:38;102114.22;;;10.34;nan
62694;BME280;48759;52.544;13.418;2023-05-19T07:15:05;102121.97;;;10.22;nan
62694;BME280;48759;52.544;13.418;2023-05-19T07:17:34;102121.25;;;10.20;nan
62694;BME280;48759;52.544;13.418;2023-05-19T07:20:01;102118.50;;;10.04;nan
62694;BME280;48759;52.544;13.418;2023-05-19T07:22:31;102121.47;;;10.43;nan
62694;BME280;48759;52.544;13.418;2023-05-19T07:24:59;102121.47;;;10.76;nan
62694;BME280;48759;52.544;13.418;2023-05-19T07:27:26;102116.97;;;10.91;nan
62694;BME280;48759;52.544;13.418;2023-05-19T07:29:54;102119.69;;;11.15;nan
62694;BME280;48759;52.544;13.418;2023-05-19T07:32:21;102117.69;;;11.48;nan
62694;BME280;48759;52.544;13.418;2023-05-19T07:34:48;102123.97;;;11.73;nan
62694;BME280;48759;52.544;13.418;2023-05-19T07:37:14;102123.44;;;11.77;nan
62694;BME280;48759;52.544;13.418;2023-05-19T07:39:41;102115.28;;;11.84;nan
62694;BME280;48759;52.544;13.418;2023-05-19T07:42:09;102119.09;;;12.06;nan
62694;BME280;48759;52.544;13.418;2023-05-19T07:44:35;102111.91;;;12.27;nan
62694;BME280;48759;52.544;13.418;2023-05-19T07:47:05;102112.88;;;12.35;nan
62694;BME280;48759;52.544;13.418;2023-05-19T07:49:31;102115.31;;;12.30;nan
62694;BME280;48759;52.544;13.418;2023-05-19T07:51:58;102107.84;;;12.15;nan
62694;BME280;48759;52.544;13.418;2023-05-19T07:54:26;102110.41;;;12.40;nan
62694;BME280;48759;52.544;13.418;2023-05-19T07:56:54;102116.06;;;12.69;nan
62694;BME280;48759;52.544;13.418;2023-05-19T07:59:20;102108.28;;;12.87;nan
62694;BME280;48759;52.544;13.418;2023-05-19T08:01:47;102111.16;;;13.09;nan
62694;BME280;48759;52.544;13.418;2023-05-19T08:04:16;102104.97;;;13.51;nan
62694;BME280;48759;52.544;13.418;2023-05-19T08:06:42;102107.66;;;13.73;nan
62694;BME280;48759;52.544;13.418;2023-05-19T08:09:10;102109.63;;;13.79;nan
62694;BME280;48759;52.544;13.418;2023-05-19T08:11:36;102106.56;;;14.10;nan
62694;BME280;48759;52.544;13.418;2023-05-19T08:14:03;102109.81;;;14.35;nan
62694;BME280;48759;52.544;13.418;2023-05-19T08:16:30;102111.16;;;14.39;nan
62694;BME280;48759;52.544;13.418;2023-05-19T08:18:57;102110.75;;;14.42;nan
62694;BME280;48759;52.544;13.418;2023-05-19T08:21:28;102107.59;;;14.24;nan
62694;BME280;48759;52.544;13.418;2023-05-19T08:23:55;102118.31;;;13.91;nan
62694;BME280;48759;52.544;13.418;2023-05-19T08:26:22;102113.53;;;14.21;nan
62694;BME280;48759;52.544;13.418;2023-05-19T08:28:49;102112.59;;;14.35;nan
62694;BME280;48759;52.544;13.418;2023-05-19T08:31:15;102116.09;;;14.44;nan
62694;BME280;48759;52.544;13.418;2023-05-19T08:33:43;102117.28;;;14.35;nan
62694;BME280;48759;52.544;13.418;2023-05-19T08:36:10;102112.47;;;14.22;nan
62694;BME280;48759;52.544;13.418;2023-05-19T08:38:38;102108.38;;;14.18;nan
62694;BME280;48759;52.544;13.418;2023-05-19T08:41:05;102117.50;;;13.97;nan
62694;BME280;48759;52.544;13.418;2023-05-19T08:43:32;102104.16;;;14.01;nan
62694;BME280;48759;52.544;13.418;2023-05-19T08:45:59;102112.53;;;14.29;nan
62694;BME280;48759;52.544;13.418;2023-05-19T08:48:27;102103.31;;;14.22;nan
62694;BME280;48759;52.544;13.418;2023-05-19T08:51:00;102104.66;;;14.47;nan
62694;BME280;48759;52.544;13.418;2023-05-19T08:53:35;102100.22;;;14.52;nan
62694;BME280;48759;52.544;13.418;2023-05-19T08:56:08;102102.19;;;14.80;nan
62694;BME280;48759;52.544;13.418;2023-05-19T08:58:38;102100.19;;;15.02;nan
62694;BME280;48759;52.544;13.418;2023-05-19T09:01:06;102086.69;;;15.20;nan
62694;BME280;48759;52.544;13.418;2023-05-19T09:03:33;102098.31;;;15.37;nan
62694;BME280;48759;52.544;13.418;2023-05-19T09:06:04;102084.03;;;15.87;nan
62694;BME280;48759;52.544;13.418;2023-05-19T09:08:31;102090.56;;;16.27;nan
62694;BME280;48759;52.544;13.418;2023-05-19T09:10:58;102080.75;;;16.44;nan
62694;BME280;48759;52.544;13.418;2023-05-19T09:13:27;102082.06;;;16.68;nan
62694;BME280;48759;52.544;13.418;2023-05-19T09:15:55;102084.19;;;16.73;nan
62694;BME280;48759;52.544;13.418;2023-05-19T09:18:23;102079.22;;;17.21;nan
62694;BME280;48759;52.544;13.418;2023-05-19T09:20:55;102063.53;;;17.33;nan
62694;BME280;48759;52.544;13.418;2023-05-19T09:23:26;102072.59;;;17.09;nan
62694;BME280;48759;52.544;13.418;2023-05-19T09:25:54;102060.63;;;16.89;nan
62694;BME280;48759;52.544;13.418;2023-05-19T09:28:27;102067.50;;;16.93;nan
62694;BME280;48759;52.544;13.418;2023-05-19T09:30:59;102061.94;;;16.99;nan
62694;BME280;48759;52.544;13.418;2023-05-19T09:33:26;102065.31;;;17.21;nan
62694;BME280;48759;52.544;13.418;2023-05-19T09:35:54;102069.13;;;17.27;nan
62694;BME280;48759;52.544;13.418;2023-05-19T09:38:21;102056.28;;;17.32;nan
62694;BME280;48759;52.544;13.418;2023-05-19T09:40:49;102061.00;;;17.25;nan
62694;BME280;48759;52.544;13.418;2023-05-19T09:43:16;102060.72;;;17.46;nan
62694;BME280;48759;52.544;13.418;2023-05-19T09:45:44;102054.41;;;17.71;nan
62694;BME280;48759;52.544;13.418;2023-05-19T09:48:11;102051.72;;;17.51;nan
62694;BME280;48759;52.544;13.418;2023-05-19T09:50:39;102060.00;;;17.71;nan
62694;BME280;48759;52.544;13.418;2023-05-19T09:53:08;102052.72;;;17.70;nan
62694;BME280;48759;52.544;13.418;2023-05-19T09:55:38;102039.19;;;18.11;nan
62694;BME280;48759;52.544;13.418;2023-05-19T09:58:08;102048.38;;;18.18;nan
62694;BME280;48759;52.544;13.418;2023-05-19T10:00:35;102050.25;;;17.93;nan
62694;BME280;48759;52.544;13.418;2023-05-19T10:03:08;102041.91;;;17.93;nan
62694;BME280;48759;52.544;13.418;2023-05-19T10:05:35;102040.69;;;17.18;nan
62694;BME280;48759;52.544;13.418;2023-05-19T10:08:02;102043.06;;;17.14;nan
62694;BME280;48759;52.544;13.418;2023-05-19T10:10:32;102043.94;;;17.02;nan
62694;BME280;48759;52.544;13.418;2023-05-19T10:12:59;102041.75;;;17.17;nan
62694;BME280;48759;52.544;13.418;2023-05-19T10:15:28;102043.47;;;17.18;nan
62694;BME280;48759;52.544;13.418;2023-05-19T10:17:55;102030.84;;;17.22;nan
62694;BME280;48759;52.544;13.418;2023-05-19T10:20:25;102030.91;;;17.60;nan
62694;BME280;48759;52.544;13.418;2023-05-19T10:22:52;102022.44;;;17.35;nan
62694;BME280;48759;52.544;13.418;2023-05-19T10:25:19;102039.47;;;17.01;nan
62694;BME280;48759;52.544;13.418;2023-05-19T10:27:50;102040.06;;;16.96;nan
62694;BME280;48759;52.544;13.418;2023-05-19T10:30:25;102035.94;;;17.25;nan
62694;BME280;48759;52.544;13.418;2023-05-19T10:32:54;102038.22;;;17.54;nan
62694;BME280;48759;52.544;13.418;2023-05-19T10:35:41;102027.34;;;17.91;nan
62694;BME280;48759;52.544;13.418;2023-05-19T10:38:23;102034.03;;;18.15;nan
62694;BME280;48759;52.544;13.418;2023-05-19T10:40:59;102029.19;;;17.59;nan
62694;BME280;48759;52.544;13.418;2023-05-19T10:43:38;102026.50;;;17.39;nan
62694;BME280;48759;52.544;13.418;2023-05-19T10:46:09;102020.94;;;17.33;nan
62694;BME280;48759;52.544;13.418;2023-05-19T10:48:36;102017.63;;;17.62;nan
62694;BME280;48759;52.544;13.418;2023-05-19T10:51:05;102031.09;;;18.03;nan
62694;BME280;48759;52.544;13.418;2023-05-19T10:53:39;102028.72;;;18.07;nan
62694;BME280;48759;52.544;13.418;2023-05-19T10:56:11;102029.13;;;17.79;nan
62694;BME280;48759;52.544;13.418;2023-05-19T10:58:54;102017.13;;;17.72;nan
62694;BME280;48759;52.544;13.418;2023-05-19T11:01:21;102008.09;;;18.14;nan
62694;BME280;48759;52.544;13.418;2023-05-19T11:03:50;102010.75;;;18.27;nan
62694;BME280;48759;52.544;13.418;2023-05-19T11:06:26;102017.16;;;18.34;nan
62694;BME280;48759;52.544;13.418;2023-05-19T11:08:56;102019.38;;;18.51;nan
62694;BME280;48759;52.544;13.418;2023-05-19T11:11:23;102022.13;;;19.00;nan
62694;BME280;48759;52.544;13.418;2023-05-19T11:13:51;102003.13;;;18.73;nan
62694;BME280;48759;52.544;13.418;2023-05-19T11:16:18;102016.22;;;18.90;nan
62694;BME280;48759;52.544;13.418;2023-05-19T11:18:49;102017.97;;;18.42;nan
62694;BME280;48759;52.544;13.418;2023-05-19T11:21:18;102018.41;;;18.39;nan
62694;BME280;48759;52.544;13.418;2023-05-19T11:23:46;102012.31;;;18.23;nan
62694;BME280;48759;52.544;13.418;2023-05-19T11:26:13;102006.00;;;18.10;nan
62694;BME280;48759;52.544;13.418;2023-05-19T11:28:40;101995.94;;;17.71;nan
62694;BME280;48759;52.544;13.418;2023-05-19T11:31:07;101999.88;;;18.26;nan
62694;BME280;48759;52.544;13.418;2023-05-19T11:33:36;101992.69;;;18.37;nan
62694;BME280;48759;52.544;13.418;2023-05-19T11:36:03;101993.72;;;18.17;nan
62694;BME280;48759;52.544;13.418;2023-05-19T11:38:33;101994.50;;;18.24;nan
62694;BME280;48759;52.544;13.418;2023-05-19T11:41:02;101996.50;;;18.42;nan
62694;BME280;48759;52.544;13.418;2023-05-19T11:43:30;101992.50;;;18.99;nan
62694;BME280;48759;52.544;13.418;2023-05-19T11:45:56;101998.81;;;19.50;nan
62694;BME280;48759;52.544;13.418;2023-05-19T11:48:23;102005.69;;;19.47;nan
62694;BME280;48759;52.544;13.418;2023-05-19T11:50:51;102004.16;;;19.51;nan
62694;BME280;48759;52.544;13.418;2023-05-19T11:53:18;101989.34;;;19.80;nan
62694;BME280;48759;52.544;13.418;2023-05-19T11:55:46;101984.41;;;20.47;nan
62694;BME280;48759;52.544;13.418;2023-05-19T11:58:14;101985.41;;;20.65;nan
62694;BME280;48759;52.544;13.418;2023-05-19T12:00:43;101984.88;;;21.14;nan
62694;BME280;48759;52.544;13.418;2023-05-19T12:03:10;101986.13;;;20.95;nan
62694;BME280;48759;52.544;13.418;2023-05-19T12:05:42;101980.00;;;21.21;nan
62694;BME280;48759;52.544;13.418;2023-05-19T12:08:09;101982.75;;;21.45;nan
62694;BME280;48759;52.544;13.418;2023-05-19T12:10:37;101986.50;;;21.79;nan
62694;BME280;48759;52.544;13.418;2023-05-19T12:13:05;101977.66;;;21.70;nan
62694;BME280;48759;52.544;13.418;2023-05-19T12:15:35;101981.66;;;21.46;nan
62694;BME280;48759;52.544;13.418;2023-05-19T12:18:02;101981.41;;;21.75;nan
62694;BME280;48759;52.544;13.418;2023-05-19T12:20:30;101983.00;;;21.43;nan
62694;BME280;48759;52.544;13.418;2023-05-19T12:23:00;101970.97;;;21.19;nan
62694;BME280;48759;52.544;13.418;2023-05-19T12:25:28;101979.28;;;21.14;nan
62694;BME280;48759;52.544;13.418;2023-05-19T12:27:56;101981.69;;;21.22;nan
62694;BME280;48759;52.544;13.418;2023-05-19T12:30:27;101989.63;;;21.14;nan
62694;BME280;48759;52.544;13.418;2023-05-19T12:32:56;101976.50;;;21.83;nan
62694;BME280;48759;52.544;13.418;2023-05-19T12:35:25;101977.91;;;22.13;nan
62694;BME280;48759;52.544;13.418;2023-05-19T12:37:53;101970.28;;;22.59;nan
62694;BME280;48759;52.544;13.418;2023-05-19T12:40:20;101972.53;;;22.57;nan
62694;BME280;48759;52.544;13.418;2023-05-19T12:42:48;101971.31;;;22.53;nan
62694;BME280;48759;52.544;13.418;2023-05-19T12:45:19;101961.94;;;22.31;nan
62694;BME280;48759;52.544;13.418;2023-05-19T12:47:47;101957.28;;;22.03;nan
62694;BME280;48759;52.544;13.418;2023-05-19T12:50:16;101955.88;;;21.60;nan
62694;BME280;48759;52.544;13.418;2023-05-19T12:52:45;101947.56;;;19.85;nan
62694;BME280;48759;52.544;13.418;2023-05-19T12:55:12;101959.91;;;19.36;nan
62694;BME280;48759;52.544;13.418;2023-05-19T12:57:42;101966.78;;;19.52;nan
62694;BME280;48759;52.544;13.418;2023-05-19T13:00:13;101967.22;;;19.49;nan
62694;BME280;48759;52.544;13.418;2023-05-19T13:02:55;101970.31;;;19.59;nan
62694;BME280;48759;52.544;13.418;2023-05-19T13:05:24;101959.19;;;19.23;nan
62694;BME280;48759;52.544;13.418;2023-05-19T13:07:55;101945.44;;;19.69;nan
62694;BME280;48759;52.544;13.418;2023-05-19T13:10:22;101941.38;;;19.83;nan
62694;BME280;48759;52.544;13.418;2023-05-19T13:12:51;101943.22;;;20.78;nan
62694;BME280;48759;52.544;13.418;2023-05-19T13:15:18;101950.41;;;20.62;nan